LZTT/TAT METAR and TAF weather

Enter ICAO airport designator
Station Type Date Time Source
LZTT METAR 2020/09/22 20:30 UTC NOAA

LZTT 222030Z 25008KT CAVOK 12/08 Q1017


Station Type Date Time Source
LZTT Decoded METAR 2020/09/22 20:30 UTC NOAA

Poprad / Tatry, Slovakia (LZTT) 49-04N 020-15E 695M
Sep 22, 2020 - 04:30 PM EDT / 2020.09.22 2030 UTC
Wind: from the WSW (250 degrees) at 9 MPH (8 KT):0
Visibility: greater than 7 mile(s):0
Temperature: 53 F (12 C)
Dew Point: 46 F (8 C)
Relative Humidity: 76%
Pressure (altimeter): 30.03 in. Hg (1017 hPa)
ob: LZTT 222030Z 25008KT CAVOK 12/08 Q1017
cycle: 20

Station Type Date Time Source
LZTT TAF 2020/09/22 18:36 UTC NOAA

TAF LZTT 221700Z 2218/2318 26004KT CAVOK
BECMG 2308/2310 13008KT 9999 SCT040
TEMPO 2312/2315 16010KT FEW040CB SCT050

Example: see airport list